Time;durP1;ratioP1;P1;durP2;ratioP2;P2;SDS_P1;SDS_P2;PMS_P1;PMS_P2;Temp;Humidity;BMP_temperature;BMP_pressure;BME280_temperature;BME280_humidity;BME280_pressure;Samples;Min_cycle;Max_cycle;Signal;HPM_P1;HPM_P2
2023/10/11 00:02:15;;;;;;;19.40;17.70;;;13.70;85.10;;;;;;6270810;28;20366;-81
2023/10/11 00:05:19;;;;;;;19.50;17.63;;;13.70;85.30;;;;;;6286820;28;20244;-82
2023/10/11 00:08:25;;;;;;;19.30;17.43;;;13.80;85.30;;;;;;6268100;28;20241;-84
2023/10/11 00:11:30;;;;;;;18.60;17.03;;;13.80;85.30;;;;;;6281520;28;20309;-83
2023/10/11 00:14:39;;;;;;;19.23;17.40;;;13.70;85.40;;;;;;6282155;28;20225;-81
2023/10/11 00:17:46;;;;;;;17.73;16.23;;;13.80;85.40;;;;;;6274802;28;20234;-82
2023/10/11 00:20:56;;;;;;;16.87;15.30;;;13.80;85.40;;;;;;6285861;28;20239;-83
2023/10/11 00:24:01;;;;;;;21.00;18.73;;;13.80;85.40;;;;;;6284657;28;20882;-84
2023/10/11 00:27:05;;;;;;;18.70;16.97;;;13.80;85.80;;;;;;6284190;28;20597;-83
2023/10/11 00:30:09;;;;;;;17.70;16.17;;;13.80;85.70;;;;;;6277097;28;20244;-82
2023/10/11 00:33:13;;;;;;;17.30;15.53;;;13.80;85.70;;;;;;6286686;28;20666;-83
2023/10/11 00:36:36;;;;;;;16.40;14.80;;;13.90;85.70;;;;;;6277459;28;20382;-82
2023/10/11 00:39:44;;;;;;;16.30;14.80;;;13.80;85.70;;;;;;6285867;28;20245;-84
2023/10/11 00:42:47;;;;;;;16.43;14.83;;;13.80;85.70;;;;;;6285680;28;20818;-83
2023/10/11 00:45:51;;;;;;;17.17;15.53;;;13.80;85.70;;;;;;6270493;28;20618;-80
2023/10/11 00:48:55;;;;;;;16.10;14.53;;;13.80;85.70;;;;;;6286529;28;20244;-83
2023/10/11 00:51:58;;;;;;;15.53;14.13;;;13.70;85.70;;;;;;6285138;28;20253;-83
2023/10/11 00:55:09;;;;;;;15.80;14.40;;;13.70;85.70;;;;;;6283509;28;20716;-84
2023/10/11 00:58:17;;;;;;;17.30;15.77;;;13.60;85.70;;;;;;6274804;28;20234;-82
2023/10/11 01:01:22;;;;;;;15.50;14.07;;;13.60;85.80;;;;;;6287142;28;20241;-85
2023/10/11 01:04:33;;;;;;;15.50;14.10;;;13.60;85.90;;;;;;6282749;28;20259;-83
2023/10/11 01:07:37;;;;;;;14.93;13.60;;;13.60;85.90;;;;;;6284817;28;20234;-83
2023/10/11 01:10:45;;;;;;;20.07;17.60;;;13.60;85.90;;;;;;6282886;28;20233;-81
2023/10/11 01:13:51;;;;;;;16.97;15.27;;;13.60;86.40;;;;;;6289431;28;20233;-84
2023/10/11 01:16:56;;;;;;;16.33;14.83;;;13.60;86.60;;;;;;6283433;28;20885;-83
2023/10/11 01:20:05;;;;;;;16.93;15.13;;;13.70;86.50;;;;;;6281970;28;20272;-84
2023/10/11 01:23:10;;;;;;;17.87;15.73;;;13.70;86.40;;;;;;6288756;28;20237;-82
2023/10/11 01:26:15;;;;;;;16.83;15.20;;;13.80;86.30;;;;;;6283536;28;20295;-83
2023/10/11 01:29:18;;;;;;;17.77;15.30;;;13.80;86.50;;;;;;6289586;28;20245;-82
2023/10/11 01:32:21;;;;;;;16.20;13.50;;;13.90;86.50;;;;;;6272017;28;20761;-81
2023/10/11 01:35:28;;;;;;;15.63;13.73;;;13.90;86.20;;;;;;6286884;28;20366;-82
2023/10/11 01:38:33;;;;;;;19.27;13.37;;;13.90;85.70;;;;;;6275736;28;20314;-84
2023/10/11 01:41:42;;;;;;;13.80;12.43;;;14.00;85.60;;;;;;6278458;28;20739;-83
2023/10/11 01:44:45;;;;;;;15.73;12.67;;;14.00;85.30;;;;;;6277771;28;20248;-82
2023/10/11 01:47:50;;;;;;;14.27;12.90;;;14.00;85.20;;;;;;6288171;28;20240;-83
2023/10/11 01:51:01;;;;;;;14.50;13.10;;;14.00;84.80;;;;;;6280633;28;20236;-84
2023/10/11 01:54:07;;;;;;;15.40;13.30;;;14.00;84.80;;;;;;6279724;28;20248;-82
2023/10/11 01:57:11;;;;;;;15.13;13.07;;;14.00;84.70;;;;;;6278054;28;20256;-83
2023/10/11 02:00:15;;;;;;;17.83;13.33;;;14.00;84.40;;;;;;6289128;28;20602;-81
2023/10/11 02:03:19;;;;;;;12.60;11.43;;;14.00;84.40;;;;;;6282153;28;20238;-85
2023/10/11 02:06:25;;;;;;;12.37;11.17;;;14.00;84.50;;;;;;6272243;28;20239;-83
2023/10/11 02:09:33;;;;;;;13.30;12.17;;;13.90;84.40;;;;;;6288088;28;20758;-84
2023/10/11 02:12:36;;;;;;;14.77;13.27;;;13.90;84.30;;;;;;6287475;28;20233;-85
2023/10/11 02:15:40;;;;;;;14.37;12.33;;;13.90;84.40;;;;;;6283885;28;20407;-82
2023/10/11 02:18:48;;;;;;;13.70;11.73;;;13.90;84.40;;;;;;6276204;28;20226;-82
2023/10/11 02:21:53;;;;;;;14.30;12.87;;;13.90;84.40;;;;;;6284030;28;20739;-82
2023/10/11 02:25:00;;;;;;;13.97;12.43;;;13.90;84.30;;;;;;6282092;28;20329;-82
2023/10/11 02:28:07;;;;;;;17.57;12.77;;;13.80;84.30;;;;;;6268952;28;20339;-82
2023/10/11 02:31:13;;;;;;;17.87;14.23;;;13.80;84.20;;;;;;6284424;28;20644;-82
2023/10/11 02:34:16;;;;;;;13.33;11.93;;;13.80;84.00;;;;;;6278924;28;20334;-83
2023/10/11 02:37:22;;;;;;;14.07;12.13;;;13.80;84.00;;;;;;6286866;28;20717;-82
2023/10/11 02:40:30;;;;;;;13.27;11.93;;;13.70;83.90;;;;;;6281792;28;20747;-82
2023/10/11 02:43:47;;;;;;;13.70;12.30;;;13.70;84.00;;;;;;6285251;28;20310;-84
2023/10/11 02:46:50;;;;;;;12.97;11.67;;;13.70;84.10;;;;;;6265714;28;20882;-83
2023/10/11 02:49:54;;;;;;;14.40;12.97;;;13.60;84.00;;;;;;6286490;28;20294;-83
2023/10/11 02:53:05;;;;;;;14.53;13.07;;;13.60;84.20;;;;;;6286428;28;20232;-84
2023/10/11 02:56:11;;;;;;;13.57;12.23;;;13.50;84.20;;;;;;6286430;28;20236;-82
2023/10/11 02:59:19;;;;;;;15.23;12.30;;;13.50;84.20;;;;;;6285703;28;20322;-82
2023/10/11 03:02:22;;;;;;;14.17;11.43;;;13.60;84.00;;;;;;6286453;28;20260;-81
2023/10/11 03:05:28;;;;;;;14.73;11.93;;;13.50;83.80;;;;;;6283975;28;20255;-81
2023/10/11 03:08:31;;;;;;;14.80;12.60;;;13.60;83.60;;;;;;6283742;28;20282;-82
2023/10/11 03:11:45;;;;;;;12.87;11.57;;;13.60;83.30;;;;;;6287483;28;20231;-82
2023/10/11 03:14:54;;;;;;;16.50;12.23;;;13.60;83.10;;;;;;6278250;28;20225;-82
2023/10/11 03:18:05;;;;;;;15.67;12.00;;;13.60;83.20;;;;;;6277301;28;20241;-83
2023/10/11 03:21:17;;;;;;;13.00;11.70;;;13.60;83.00;;;;;;6275619;28;20229;-80
2023/10/11 03:24:24;;;;;;;12.73;11.43;;;13.60;82.90;;;;;;6284454;28;20311;-82
2023/10/11 03:27:36;;;;;;;13.77;11.83;;;13.60;82.70;;;;;;6277694;28;20229;-81
2023/10/11 03:30:39;;;;;;;13.30;10.97;;;13.50;82.70;;;;;;6284897;28;20306;-82
2023/10/11 03:33:43;;;;;;;16.70;11.30;;;13.60;82.60;;;;;;6268324;28;20323;-84
2023/10/11 03:36:51;;;;;;;12.97;11.67;;;13.50;82.60;;;;;;6277857;28;20295;-82
2023/10/11 03:39:56;;;;;;;16.97;11.60;;;13.50;82.70;;;;;;6274412;28;20783;-82
2023/10/11 03:43:03;;;;;;;18.17;11.70;;;13.50;82.70;;;;;;6278230;28;20229;-81
2023/10/11 03:46:07;;;;;;;14.63;10.97;;;13.50;82.70;;;;;;6273270;28;20233;-84
2023/10/11 03:52:33;;;;;;;19.27;11.50;;;13.40;82.70;;;;;;6278137;28;20363;-82
2023/10/11 03:55:45;;;;;;;13.73;11.77;;;13.40;82.60;;;;;;6276499;28;20233;-82
2023/10/11 03:58:50;;;;;;;15.93;11.20;;;13.40;82.40;;;;;;6280055;28;20248;-81
2023/10/11 04:01:53;;;;;;;11.53;10.43;;;13.30;82.40;;;;;;6273835;28;20248;-83
2023/10/11 04:04:57;;;;;;;15.43;11.20;;;13.30;82.30;;;;;;6275064;28;20237;-81
2023/10/11 04:08:04;;;;;;;13.17;10.93;;;13.30;82.30;;;;;;6277364;28;20233;-82
2023/10/11 04:11:14;;;;;;;12.53;11.10;;;13.30;82.20;;;;;;6272234;28;20241;-81
2023/10/11 04:14:24;;;;;;;15.43;11.60;;;13.30;82.30;;;;;;6267514;28;20324;-82
2023/10/11 04:17:27;;;;;;;12.47;10.70;;;13.30;82.40;;;;;;6276820;28;20730;-83
2023/10/11 04:20:33;;;;;;;11.07;9.83;;;13.30;82.20;;;;;;6285808;28;20254;-84
2023/10/11 04:23:40;;;;;;;13.30;11.47;;;13.30;82.30;;;;;;6284057;28;20236;-82
2023/10/11 04:26:53;;;;;;;16.73;11.07;;;13.30;82.10;;;;;;6275560;28;20933;-82
2023/10/11 04:29:57;;;;;;;11.53;10.33;;;13.30;82.00;;;;;;6283699;28;20232;-81
2023/10/11 04:33:01;;;;;;;11.93;10.73;;;13.30;81.80;;;;;;6273537;28;20340;-80
2023/10/11 04:36:07;;;;;;;10.77;9.70;;;13.30;81.70;;;;;;6272837;28;20241;-82
2023/10/11 04:39:16;;;;;;;12.70;10.17;;;13.30;81.70;;;;;;6279612;28;20230;-80
2023/10/11 04:42:27;;;;;;;12.50;10.10;;;13.30;81.70;;;;;;6273263;28;20228;-83
2023/10/11 04:45:43;;;;;;;10.43;9.43;;;13.30;81.70;;;;;;6285444;28;20241;-82
2023/10/11 04:49:18;;;;;;;14.37;10.03;;;13.30;81.70;;;;;;6279745;28;20229;-84
2023/10/11 04:52:31;;;;;;;11.10;10.00;;;13.30;81.70;;;;;;6282104;28;20629;-83
2023/10/11 04:55:37;;;;;;;12.43;10.00;;;13.50;81.50;;;;;;6275141;28;20341;-83
2023/10/11 04:58:41;;;;;;;10.67;8.50;;;13.50;81.10;;;;;;6284826;28;20230;-84
2023/10/11 05:02:01;;;;;;;10.30;9.23;;;13.50;80.50;;;;;;6280882;28;20237;-83
2023/10/11 05:05:10;;;;;;;9.63;8.60;;;13.70;80.00;;;;;;6287531;28;20736;-83
2023/10/11 05:08:21;;;;;;;10.67;9.37;;;13.90;79.20;;;;;;6282484;28;20809;-85
2023/10/11 05:11:36;;;;;;;11.63;9.07;;;13.90;79.00;;;;;;6290895;28;20234;-83
2023/10/11 05:14:56;;;;;;;12.10;9.10;;;13.90;78.70;;;;;;6283500;28;20248;-86
2023/10/11 05:18:06;;;;;;;10.70;9.00;;;14.10;77.90;;;;;;6283520;28;20233;-83
2023/10/11 05:21:14;;;;;;;12.10;8.50;;;14.20;77.80;;;;;;6275056;28;20257;-83
2023/10/11 05:27:50;;;;;;;15.60;8.93;;;14.10;77.60;;;;;;6281629;28;20253;-82
2023/10/11 05:34:46;;;;;;;9.40;8.50;;;14.20;77.10;;;;;;6289967;28;20230;-82
2023/10/11 05:51:19;;;;;;;13.10;8.03;;;14.10;77.00;;;;;;6292412;28;20225;-78
2023/10/11 05:54:33;;;;;;;10.80;8.53;;;14.20;76.90;;;;;;6281096;28;20291;-78
2023/10/11 05:57:38;;;;;;;9.27;8.47;;;14.20;76.70;;;;;;6277534;28;20256;-78
2023/10/11 06:00:41;;;;;;;9.87;8.67;;;14.20;76.90;;;;;;6276347;28;20233;-80
2023/10/11 06:03:44;;;;;;;11.53;9.10;;;14.20;76.90;;;;;;6271019;28;20244;-78
2023/10/11 06:06:52;;;;;;;12.93;8.77;;;14.30;76.40;;;;;;6278347;28;20234;-79
2023/10/11 06:09:58;;;;;;;13.53;9.30;;;14.50;75.60;;;;;;6287056;28;20671;-77
2023/10/11 06:13:07;;;;;;;11.37;7.77;;;14.50;75.50;;;;;;6282471;28;20251;-79
2023/10/11 06:16:13;;;;;;;12.30;8.43;;;14.50;75.30;;;;;;6276467;28;20241;-78
2023/10/11 06:19:17;;;;;;;10.50;8.37;;;14.50;75.10;;;;;;6277043;28;20229;-78
2023/10/11 06:22:28;;;;;;;12.47;8.00;;;14.70;74.70;;;;;;6286062;28;20244;-76
2023/10/11 06:29:02;;;;;;;11.17;8.17;;;14.80;73.90;;;;;;6278006;28;20319;-77
2023/10/11 06:32:11;;;;;;;11.17;7.97;;;15.00;73.60;;;;;;6282718;28;20226;-78
2023/10/11 06:35:24;;;;;;;11.27;7.83;;;15.00;73.30;;;;;;6287281;28;20234;-77
2023/10/11 06:38:41;;;;;;;9.93;7.77;;;15.00;73.20;;;;;;6274211;28;20241;-77
2023/10/11 06:41:50;;;;;;;10.37;8.47;;;15.20;73.00;;;;;;6280297;28;20324;-79
2023/10/11 06:44:57;;;;;;;13.23;8.13;;;15.30;72.80;;;;;;6280500;28;20248;-77
2023/10/11 06:48:06;;;;;;;12.30;7.43;;;15.30;72.70;;;;;;6271385;28;20238;-78
2023/10/11 06:51:13;;;;;;;8.67;7.53;;;15.40;72.40;;;;;;6282405;28;20222;-80
2023/10/11 06:54:23;;;;;;;11.00;7.70;;;15.50;72.30;;;;;;6277757;28;20225;-79
2023/10/11 06:57:26;;;;;;;14.47;7.83;;;15.50;71.80;;;;;;6275812;28;20236;-79
2023/10/11 07:00:37;;;;;;;11.33;7.37;;;15.60;71.70;;;;;;6286267;28;20688;-79
2023/10/11 07:03:40;;;;;;;8.30;7.43;;;15.70;71.40;;;;;;6284279;28;20318;-82
2023/10/11 07:06:46;;;;;;;14.97;7.80;;;15.80;71.50;;;;;;6283346;28;20236;-83
2023/10/11 07:09:57;;;;;;;8.77;7.77;;;15.90;71.50;;;;;;6281823;28;20310;-78
2023/10/11 07:13:13;;;;;;;13.23;7.87;;;16.00;70.80;;;;;;6285373;28;20229;-80
2023/10/11 07:16:19;;;;;;;9.03;7.50;;;16.10;70.20;;;;;;6274559;28;20245;-79
2023/10/11 07:19:23;;;;;;;8.17;7.20;;;16.30;70.10;;;;;;6285788;28;20244;-79
2023/10/11 07:22:27;;;;;;;11.87;9.23;;;16.40;69.40;;;;;;6277968;28;20235;-80
2023/10/11 07:25:45;;;;;;;11.97;7.33;;;16.50;69.50;;;;;;6274987;28;20237;-81
2023/10/11 07:28:50;;;;;;;8.60;7.70;;;16.60;69.40;;;;;;6285020;28;20242;-77
2023/10/11 07:31:53;;;;;;;10.40;7.13;;;16.80;68.90;;;;;;6275760;28;20294;-78
2023/10/11 07:34:56;;;;;;;8.40;6.87;;;16.80;69.00;;;;;;6282176;28;20892;-80
2023/10/11 07:38:00;;;;;;;8.83;6.53;;;17.00;68.00;;;;;;6276946;28;20863;-78
2023/10/11 07:41:05;;;;;;;10.80;7.50;;;17.00;67.90;;;;;;6271900;28;20241;-80
2023/10/11 07:44:09;;;;;;;14.20;7.43;;;17.10;67.90;;;;;;6282651;28;20234;-79
2023/10/11 07:47:15;;;;;;;9.40;6.73;;;17.10;68.10;;;;;;6285045;28;20237;-81
2023/10/11 07:50:22;;;;;;;8.33;7.13;;;17.10;68.20;;;;;;6271681;28;20232;-83
2023/10/11 07:53:26;;;;;;;8.57;6.90;;;17.20;68.80;;;;;;6275501;28;20312;-79
2023/10/11 07:56:31;;;;;;;17.10;7.53;;;17.20;68.10;;;;;;6284256;28;20267;-79
2023/10/11 07:59:39;;;;;;;9.83;7.20;;;17.30;68.10;;;;;;6279689;28;20240;-82
2023/10/11 08:02:43;;;;;;;8.13;6.60;;;17.40;67.70;;;;;;6278436;28;20233;-81
2023/10/11 08:05:47;;;;;;;6.93;6.30;;;17.40;67.20;;;;;;6278557;28;20757;-80
2023/10/11 08:08:51;;;;;;;10.97;8.10;;;17.50;67.20;;;;;;6268670;28;20727;-80
2023/10/11 08:11:58;;;;;;;10.07;6.63;;;17.50;67.30;;;;;;6279690;28;20746;-80
2023/10/11 08:15:04;;;;;;;11.33;7.40;;;17.70;67.10;;;;;;6283567;28;20241;-79
2023/10/11 08:18:08;;;;;;;7.03;6.27;;;17.80;66.70;;;;;;6277915;28;20242;-81
2023/10/11 08:21:11;;;;;;;7.90;7.10;;;18.00;66.50;;;;;;6282035;28;20730;-78
2023/10/11 08:24:17;;;;;;;10.13;6.73;;;18.00;66.60;;;;;;6281147;28;20229;-81
2023/10/11 08:27:27;;;;;;;10.17;6.50;;;18.00;66.20;;;;;;6282359;28;20225;-78
2023/10/11 08:30:32;;;;;;;6.50;5.90;;;18.10;66.10;;;;;;6278997;28;20366;-80
2023/10/11 08:33:36;;;;;;;9.33;7.23;;;18.20;66.10;;;;;;6279471;28;20781;-78
2023/10/11 08:36:41;;;;;;;8.40;7.57;;;18.50;65.50;;;;;;6280925;28;20268;-80
2023/10/11 08:39:45;;;;;;;9.43;6.67;;;18.60;65.40;;;;;;6281079;28;20236;-78
2023/10/11 08:42:54;;;;;;;13.80;6.00;;;18.60;65.40;;;;;;6272310;28;20249;-78
2023/10/11 08:46:05;;;;;;;7.13;6.17;;;18.80;65.30;;;;;;6277998;28;20824;-80
2023/10/11 08:49:08;;;;;;;9.03;6.70;;;18.90;65.20;;;;;;6284408;28;20229;-82
2023/10/11 08:52:12;;;;;;;8.37;6.20;;;19.10;64.30;;;;;;6282743;28;20252;-79
2023/10/11 08:55:19;;;;;;;7.87;5.90;;;19.10;64.00;;;;;;6283550;28;20294;-80
2023/10/11 08:58:27;;;;;;;10.93;6.77;;;19.30;64.30;;;;;;6281821;28;20226;-82
2023/10/11 09:01:36;;;;;;;10.33;5.83;;;19.30;62.80;;;;;;6278167;28;20287;-80
2023/10/11 09:04:56;;;;;;;6.83;6.00;;;19.40;63.20;;;;;;6272199;28;20863;-81
2023/10/11 09:08:02;;;;;;;12.93;8.37;;;19.40;62.90;;;;;;6279339;28;20249;-82
2023/10/11 09:11:28;;;;;;;9.67;6.20;;;19.40;62.80;;;;;;6278883;28;20712;-77
2023/10/11 09:14:34;;;;;;;10.00;6.53;;;19.50;63.00;;;;;;6282009;28;20230;-77
2023/10/11 09:17:39;;;;;;;11.37;6.53;;;19.70;62.20;;;;;;6275696;28;20241;-76
2023/10/11 09:20:49;;;;;;;9.77;6.13;;;19.90;62.00;;;;;;6269126;28;20245;-79
2023/10/11 09:23:52;;;;;;;9.03;5.87;;;20.00;62.10;;;;;;6280201;28;20238;-78
2023/10/11 09:27:12;;;;;;;8.60;6.23;;;20.00;61.30;;;;;;6280856;28;20315;-80
2023/10/11 09:30:26;;;;;;;7.30;6.00;;;20.10;61.40;;;;;;6282459;28;20245;-79
2023/10/11 09:33:35;;;;;;;7.30;6.60;;;20.10;60.70;;;;;;6281616;28;20256;-79
2023/10/11 09:36:40;;;;;;;6.23;5.63;;;20.10;61.20;;;;;;6284349;28;20245;-80
2023/10/11 09:39:43;;;;;;;7.63;5.87;;;20.30;61.20;;;;;;6283609;28;20751;-78
2023/10/11 09:42:49;;;;;;;11.20;6.37;;;20.30;60.80;;;;;;6281537;28;20256;-80
2023/10/11 09:45:54;;;;;;;7.50;6.33;;;20.30;60.70;;;;;;6277793;28;20305;-78
2023/10/11 09:48:59;;;;;;;10.73;5.90;;;20.30;60.50;;;;;;6286038;28;20240;-79
2023/10/11 09:52:07;;;;;;;6.40;5.80;;;20.30;60.60;;;;;;6278903;28;20720;-79
2023/10/11 09:55:17;;;;;;;11.37;6.40;;;20.40;60.00;;;;;;6280332;28;20325;-78
2023/10/11 09:58:31;;;;;;;6.37;5.70;;;20.40;60.70;;;;;;6282453;28;20241;-77
2023/10/11 10:01:44;;;;;;;7.73;5.77;;;20.30;60.90;;;;;;6282542;28;20226;-77
2023/10/11 10:05:04;;;;;;;8.53;5.90;;;20.50;60.20;;;;;;6281676;28;20385;-78
2023/10/11 10:08:15;;;;;;;8.37;5.87;;;20.60;59.80;;;;;;6277735;28;20327;-79
2023/10/11 10:11:19;;;;;;;6.27;5.67;;;20.70;60.70;;;;;;6282055;28;20355;-81
2023/10/11 10:14:26;;;;;;;6.40;5.50;;;20.80;59.90;;;;;;6281135;28;20238;-79
2023/10/11 10:17:30;;;;;;;7.37;5.87;;;21.00;59.20;;;;;;6281422;28;20229;-79
2023/10/11 10:20:45;;;;;;;10.53;5.90;;;21.10;59.00;;;;;;6288571;28;20233;-77
2023/10/11 10:23:51;;;;;;;7.70;5.93;;;21.20;59.20;;;;;;6288639;28;20329;-78
2023/10/11 10:26:55;;;;;;;7.67;5.90;;;21.50;58.50;;;;;;6281615;28;20728;-78
2023/10/11 10:29:59;;;;;;;8.70;6.47;;;21.60;58.70;;;;;;6292957;28;20267;-79
2023/10/11 10:33:22;;;;;;;9.43;5.50;;;21.50;57.90;;;;;;6281841;28;20233;-80
2023/10/11 10:36:38;;;;;;;7.57;6.30;;;21.30;57.70;;;;;;6278409;28;20260;-81
2023/10/11 10:40:27;;;;;;;6.90;6.23;;;21.30;57.80;;;;;;6284908;28;20232;-80
2023/10/11 10:43:33;;;;;;;9.67;5.70;;;21.50;57.60;;;;;;6282740;28;20640;-80
2023/10/11 10:46:37;;;;;;;9.17;6.50;;;21.60;57.50;;;;;;6283439;28;20307;-78
2023/10/11 10:49:41;;;;;;;11.77;6.50;;;21.50;56.50;;;;;;6289497;28;20320;-81
2023/10/11 10:52:53;;;;;;;7.37;6.20;;;21.70;56.60;;;;;;6288666;28;20233;-79
2023/10/11 10:55:58;;;;;;;8.17;5.60;;;21.80;56.50;;;;;;6289584;28;20318;-79
2023/10/11 10:59:07;;;;;;;6.80;5.97;;;21.90;56.50;;;;;;6290268;28;20236;-77
2023/10/11 11:02:11;;;;;;;10.17;7.43;;;22.00;56.50;;;;;;6283405;28;20242;-77
2023/10/11 11:05:15;;;;;;;10.83;6.33;;;22.30;57.30;;;;;;6275577;28;20238;-80
2023/10/11 11:08:24;;;;;;;15.87;6.67;;;22.30;56.00;;;;;;6281404;28;20315;-76
2023/10/11 11:11:31;;;;;;;7.83;6.30;;;22.30;56.50;;;;;;6277630;28;20763;-77
2023/10/11 11:14:35;;;;;;;11.67;6.03;;;22.30;56.00;;;;;;6280107;28;20598;-76
2023/10/11 11:17:48;;;;;;;7.63;5.87;;;22.30;55.00;;;;;;6281091;28;20234;-78
2023/10/11 11:20:53;;;;;;;9.97;5.67;;;22.30;55.50;;;;;;6275897;28;20253;-78
2023/10/11 11:23:56;;;;;;;7.37;6.00;;;22.40;54.80;;;;;;6279388;28;20261;-79
2023/10/11 11:27:00;;;;;;;8.30;6.83;;;22.30;55.10;;;;;;6282733;28;20245;-78
2023/10/11 11:30:17;;;;;;;7.03;6.37;;;22.30;55.90;;;;;;6284386;28;20312;-77
2023/10/11 11:33:28;;;;;;;9.57;6.60;;;22.40;55.50;;;;;;6278809;28;20309;-80
2023/10/11 11:36:34;;;;;;;14.07;6.50;;;22.60;54.90;;;;;;6280771;28;20282;-79
2023/10/11 11:39:49;;;;;;;11.87;6.53;;;22.60;55.30;;;;;;6285992;28;20588;-79
2023/10/11 11:42:52;;;;;;;11.33;5.97;;;22.70;55.30;;;;;;6280570;28;20331;-80
2023/10/11 11:46:01;;;;;;;7.70;6.23;;;22.70;55.40;;;;;;6283020;28;20270;-78
2023/10/11 11:49:09;;;;;;;12.90;6.33;;;22.70;55.70;;;;;;6280750;28;20318;-79
2023/10/11 11:52:16;;;;;;;9.23;6.23;;;22.90;54.40;;;;;;6277121;28;20238;-80
2023/10/11 11:55:20;;;;;;;20.03;6.33;;;22.80;54.00;;;;;;6277069;28;20237;-77
2023/10/11 11:58:23;;;;;;;6.73;6.13;;;22.80;54.20;;;;;;6280858;28;20232;-79
2023/10/11 12:01:27;;;;;;;9.47;7.03;;;22.80;54.50;;;;;;6276430;28;20280;-80
2023/10/11 12:04:31;;;;;;;7.67;6.53;;;22.90;54.20;;;;;;6273076;28;20267;-79
2023/10/11 12:07:35;;;;;;;9.63;6.80;;;23.10;53.80;;;;;;6279077;28;20249;-79
2023/10/11 12:10:47;;;;;;;6.93;6.17;;;23.10;53.50;;;;;;6288522;28;20312;-79
2023/10/11 12:13:50;;;;;;;7.93;6.17;;;23.00;53.80;;;;;;6277193;28;20225;-81
2023/10/11 12:16:55;;;;;;;7.33;6.10;;;23.10;53.70;;;;;;6281441;28;20248;-79
2023/10/11 12:19:59;;;;;;;6.77;5.93;;;23.20;53.30;;;;;;6281910;28;20245;-83
2023/10/11 12:23:08;;;;;;;6.43;5.77;;;23.20;53.60;;;;;;6278059;28;20281;-83
2023/10/11 12:26:11;;;;;;;6.43;5.83;;;23.20;54.10;;;;;;6274124;28;20671;-85
2023/10/11 12:29:14;;;;;;;7.00;5.53;;;23.20;54.20;;;;;;6284904;28;20294;-84
2023/10/11 12:32:18;;;;;;;9.33;6.40;;;23.20;53.70;;;;;;6276904;28;20267;-84
2023/10/11 12:35:23;;;;;;;7.00;6.33;;;23.20;54.40;;;;;;6279407;28;20233;-84
2023/10/11 12:38:28;;;;;;;7.30;5.67;;;23.10;54.40;;;;;;6280376;28;20240;-83
2023/10/11 12:41:31;;;;;;;12.03;6.33;;;23.20;54.60;;;;;;6277818;28;20518;-83
2023/10/11 12:44:40;;;;;;;8.00;5.70;;;23.20;54.20;;;;;;6272761;28;20316;-82
2023/10/11 12:47:58;;;;;;;7.97;6.27;;;23.00;54.80;;;;;;6274096;28;20245;-84
2023/10/11 12:51:05;;;;;;;15.47;5.97;;;23.00;55.20;;;;;;6274598;28;20249;-85
2023/10/11 12:54:10;;;;;;;6.50;5.90;;;23.00;54.90;;;;;;6280189;28;20248;-82
2023/10/11 12:57:15;;;;;;;9.87;6.53;;;22.90;53.90;;;;;;6282575;28;20236;-84
2023/10/11 13:00:31;;;;;;;7.03;6.00;;;22.70;54.50;;;;;;6273194;28;20264;-83
2023/10/11 13:03:40;;;;;;;9.33;6.67;;;22.70;54.90;;;;;;6273491;28;20248;-86
2023/10/11 13:06:49;;;;;;;10.53;6.67;;;22.60;54.50;;;;;;6287977;28;20234;-83
2023/10/11 13:09:58;;;;;;;6.43;5.90;;;22.60;54.40;;;;;;6278859;28;20677;-83
2023/10/11 13:13:08;;;;;;;6.87;6.30;;;22.60;54.90;;;;;;6281619;28;20283;-85
2023/10/11 13:16:26;;;;;;;8.10;6.00;;;22.60;54.30;;;;;;6289863;28;20318;-83
2023/10/11 13:19:30;;;;;;;7.33;6.30;;;22.60;54.90;;;;;;6289035;28;20225;-83
2023/10/11 13:22:34;;;;;;;9.37;6.10;;;22.60;55.10;;;;;;6279348;28;20272;-82
2023/10/11 13:25:38;;;;;;;14.70;5.80;;;22.70;54.80;;;;;;6279831;28;20907;-83
2023/10/11 13:28:48;;;;;;;8.83;6.47;;;22.70;54.60;;;;;;6289374;28;20742;-82
2023/10/11 13:31:53;;;;;;;9.43;5.67;;;22.70;54.80;;;;;;6282170;28;20237;-82
2023/10/11 13:34:57;;;;;;;9.50;6.70;;;22.80;55.20;;;;;;6289501;28;20257;-85
2023/10/11 13:38:04;;;;;;;7.53;6.33;;;22.80;55.50;;;;;;6284392;28;20728;-82
2023/10/11 13:41:12;;;;;;;8.90;8.00;;;22.80;55.70;;;;;;6277940;28;20287;-83
2023/10/11 13:44:16;;;;;;;5.60;5.30;;;23.00;55.40;;;;;;6287576;28;20248;-82
2023/10/11 13:47:21;;;;;;;7.90;6.50;;;23.10;55.70;;;;;;6281296;28;20234;-82
2023/10/11 13:50:35;;;;;;;8.73;6.40;;;23.10;55.70;;;;;;6285091;28;20235;-86
2023/10/11 13:53:41;;;;;;;6.77;5.87;;;23.00;55.40;;;;;;6286759;28;20249;-84
2023/10/11 13:56:46;;;;;;;6.73;6.00;;;23.00;55.00;;;;;;6277582;28;20246;-81
2023/10/11 13:59:51;;;;;;;10.13;6.90;;;23.20;54.80;;;;;;6274269;28;20233;-81
2023/10/11 14:03:16;;;;;;;12.67;5.63;;;23.10;54.90;;;;;;6290674;28;20272;-82
2023/10/11 14:06:41;;;;;;;10.30;5.73;;;23.10;55.00;;;;;;6281958;28;20237;-82
2023/10/11 14:09:45;;;;;;;10.07;6.70;;;23.00;55.00;;;;;;6274863;28;20327;-83
2023/10/11 14:12:51;;;;;;;6.47;5.97;;;23.00;55.30;;;;;;6277844;28;20233;-84
2023/10/11 14:15:54;;;;;;;6.80;6.17;;;22.90;55.70;;;;;;6285668;28;20248;-83
2023/10/11 14:19:06;;;;;;;9.93;6.50;;;22.80;55.30;;;;;;6273646;28;20273;-84
2023/10/11 14:22:11;;;;;;;13.00;5.37;;;22.70;55.60;;;;;;6307140;28;20217;-82
2023/10/11 14:25:15;;;;;;;10.20;7.40;;;22.70;55.70;;;;;;6306574;28;20244;-82
2023/10/11 14:28:19;;;;;;;7.37;6.10;;;22.70;56.20;;;;;;6311017;28;20399;-81
2023/10/11 14:31:23;;;;;;;10.10;6.20;;;22.60;55.80;;;;;;6313048;28;20232;-78
2023/10/11 14:34:26;;;;;;;10.60;8.23;;;22.70;56.00;;;;;;6315214;28;20316;-82
2023/10/11 14:37:29;;;;;;;6.80;6.10;;;22.60;56.50;;;;;;6315497;28;20221;-83
2023/10/11 14:40:32;;;;;;;7.40;6.70;;;22.50;57.00;;;;;;6318852;28;20229;-82
2023/10/11 14:43:37;;;;;;;5.93;5.37;;;22.50;56.90;;;;;;6323808;28;20217;-82
2023/10/11 14:46:41;;;;;;;10.03;6.20;;;22.50;56.20;;;;;;6317587;28;20225;-82
2023/10/11 14:49:45;;;;;;;7.20;6.03;;;22.50;56.50;;;;;;6319531;28;20213;-82
2023/10/11 14:52:48;;;;;;;10.63;6.57;;;22.50;56.60;;;;;;6320706;28;20225;-81
2023/10/11 14:55:54;;;;;;;8.80;6.23;;;22.30;57.10;;;;;;6320143;28;20221;-83
2023/10/11 14:59:01;;;;;;;8.27;7.17;;;22.20;56.90;;;;;;6325494;28;20233;-82
2023/10/11 15:02:04;;;;;;;6.67;6.07;;;22.20;57.00;;;;;;6320832;28;20225;-83
2023/10/11 15:05:08;;;;;;;8.50;6.37;;;22.10;57.10;;;;;;6318474;28;20221;-84
2023/10/11 15:08:12;;;;;;;7.03;6.33;;;22.00;57.30;;;;;;6318656;28;20234;-83
2023/10/11 15:11:22;;;;;;;9.93;6.00;;;22.00;57.60;;;;;;6320636;28;20244;-80
2023/10/11 15:14:27;;;;;;;10.30;6.90;;;21.90;57.50;;;;;;6321332;28;20218;-82
2023/10/11 15:17:31;;;;;;;8.87;6.63;;;21.90;58.00;;;;;;6323118;28;20257;-79
2023/10/11 15:20:37;;;;;;;12.80;7.03;;;21.70;57.80;;;;;;6321266;28;20221;-83
2023/10/11 15:23:40;;;;;;;6.93;6.20;;;21.70;57.90;;;;;;6314519;28;20233;-83
2023/10/11 15:26:45;;;;;;;8.13;6.20;;;21.60;58.00;;;;;;6310547;28;20224;-79
2023/10/11 15:29:50;;;;;;;10.70;6.47;;;21.50;58.00;;;;;;6308627;28;20217;-81
2023/10/11 15:32:54;;;;;;;7.97;5.83;;;21.50;58.90;;;;;;6303196;28;20238;-83
2023/10/11 15:35:58;;;;;;;11.53;6.30;;;21.40;59.10;;;;;;6290398;28;20634;-83
2023/10/11 15:39:01;;;;;;;6.27;5.50;;;21.30;58.90;;;;;;6292412;28;20308;-82
2023/10/11 15:42:06;;;;;;;7.73;6.20;;;21.30;58.90;;;;;;6284559;28;20638;-84
2023/10/11 15:45:15;;;;;;;7.23;5.93;;;21.20;59.10;;;;;;6285650;28;20233;-84
2023/10/11 15:48:18;;;;;;;8.10;5.87;;;21.10;59.20;;;;;;6283821;28;20729;-85
2023/10/11 15:51:23;;;;;;;7.00;6.30;;;21.10;59.40;;;;;;6287068;28;20229;-83
2023/10/11 15:54:28;;;;;;;6.67;5.93;;;21.00;59.70;;;;;;6267778;28;20942;-84
2023/10/11 15:57:32;;;;;;;9.17;6.20;;;20.90;59.90;;;;;;6270854;28;20330;-85
2023/10/11 16:00:41;;;;;;;7.97;6.10;;;20.80;60.00;;;;;;6274226;28;20242;-85
2023/10/11 16:03:50;;;;;;;7.70;6.13;;;20.80;59.80;;;;;;6282592;28;20303;-85
2023/10/11 16:06:54;;;;;;;7.13;6.60;;;20.70;60.10;;;;;;6282565;28;20234;-83
2023/10/11 16:10:00;;;;;;;7.63;6.17;;;20.70;60.10;;;;;;6276004;28;20859;-82
2023/10/11 16:13:03;;;;;;;11.40;6.97;;;20.60;60.50;;;;;;6276302;28;20237;-83
2023/10/11 16:16:09;;;;;;;6.80;6.17;;;20.50;60.20;;;;;;6284392;28;20268;-85
2023/10/11 16:19:12;;;;;;;8.33;7.33;;;20.50;60.70;;;;;;6281806;28;20263;-84
2023/10/11 16:22:15;;;;;;;6.67;6.00;;;20.30;60.80;;;;;;6286881;28;20252;-84
2023/10/11 16:25:20;;;;;;;8.13;5.93;;;20.30;60.40;;;;;;6282943;28;20244;-85
2023/10/11 16:28:24;;;;;;;10.50;5.73;;;20.30;60.70;;;;;;6275050;28;20251;-84
2023/10/11 16:31:29;;;;;;;8.17;5.93;;;20.20;60.80;;;;;;6286672;28;20378;-85